Time;durP1;ratioP1;P1;durP2;ratioP2;P2;SDS_P1;SDS_P2;PMS_P1;PMS_P2;Temp;Humidity;BMP_temperature;BMP_pressure;BME280_temperature;BME280_humidity;BME280_pressure;Samples;Min_cycle;Max_cycle;Signal;HPM_P1;HPM_P2
2021/09/27 00:01:10;;;;;;;45.67;24.00;;;;;;;18.44;100.00;101481.72;4971258;28;20761;-63
2021/09/27 00:03:38;;;;;;;36.70;21.58;;;;;;;18.40;100.00;101485.75;4978606;28;20530;-63
2021/09/27 00:06:07;;;;;;;44.00;22.13;;;;;;;18.35;100.00;101486.31;4967145;28;20145;-62
2021/09/27 00:08:34;;;;;;;41.45;22.48;;;;;;;18.22;100.00;101480.81;4978074;28;20811;-62
2021/09/27 00:11:05;;;;;;;39.30;21.00;;;;;;;17.74;100.00;101481.84;4972129;28;20043;-62
2021/09/27 00:13:35;;;;;;;40.28;21.02;;;;;;;17.58;100.00;101481.94;4980631;28;20129;-62
2021/09/27 00:16:04;;;;;;;36.42;22.15;;;;;;;17.50;100.00;101480.16;4980023;28;20089;-62
2021/09/27 00:18:31;;;;;;;39.97;21.15;;;;;;;17.60;100.00;101482.59;4969964;28;20102;-61
2021/09/27 00:21:00;;;;;;;34.47;20.60;;;;;;;17.52;100.00;101494.09;4974978;28;20061;-62
2021/09/27 00:23:30;;;;;;;38.70;21.00;;;;;;;17.76;100.00;101476.34;4974963;28;20058;-62
2021/09/27 00:25:58;;;;;;;37.35;21.27;;;;;;;17.55;100.00;101479.66;4982774;28;20142;-62
2021/09/27 00:28:25;;;;;;;35.40;20.52;;;;;;;17.68;100.00;101468.44;4974846;28;20489;-62
2021/09/27 00:30:52;;;;;;;30.95;19.13;;;;;;;17.50;100.00;101471.38;4980548;28;20137;-62
2021/09/27 00:33:21;;;;;;;35.13;20.00;;;;;;;17.38;100.00;101478.91;4974195;28;20133;-62
2021/09/27 00:35:48;;;;;;;39.70;20.45;;;;;;;17.24;100.00;101477.03;4975010;28;20141;-63
2021/09/27 00:38:16;;;;;;;34.83;19.63;;;;;;;17.51;100.00;101488.97;4978488;28;20081;-62
2021/09/27 00:40:46;;;;;;;32.08;18.25;;;;;;;17.74;100.00;101478.38;4977395;28;20591;-62
2021/09/27 00:43:13;;;;;;;39.97;20.38;;;;;;;17.51;100.00;101479.19;4979070;28;20129;-62
2021/09/27 00:45:44;;;;;;;37.00;19.48;;;;;;;17.76;100.00;101471.06;4976475;28;20153;-61
2021/09/27 00:48:11;;;;;;;41.75;20.40;;;;;;;17.78;100.00;101477.00;4971863;28;20353;-62
2021/09/27 00:50:43;;;;;;;35.47;19.83;;;;;;;17.63;100.00;101468.97;4978936;28;20512;-62
2021/09/27 00:53:29;;;;;;;38.38;20.33;;;;;;;17.61;100.00;101475.47;4975765;28;20194;-62
2021/09/27 00:55:57;;;;;;;32.50;19.02;;;;;;;17.94;100.00;101471.59;4983576;28;20058;-62
2021/09/27 00:58:26;;;;;;;32.73;19.73;;;;;;;17.76;100.00;101476.34;4971514;28;20404;-62
2021/09/27 01:00:54;;;;;;;32.75;20.00;;;;;;;17.57;100.00;101473.16;4978628;28;20463;-62
2021/09/27 01:03:24;;;;;;;39.33;19.92;;;;;;;17.59;100.00;101480.94;4969062;28;20053;-62
2021/09/27 01:06:08;;;;;;;35.67;19.42;;;;;;;17.52;100.00;101475.53;4980546;28;20081;-61
2021/09/27 01:08:53;;;;;;;35.53;18.85;;;;;;;17.64;100.00;101468.00;4971656;28;20137;-62
2021/09/27 01:11:44;;;;;;;36.38;18.63;;;;;;;17.46;100.00;101465.59;4980556;28;20109;-62
2021/09/27 01:14:29;;;;;;;41.35;20.75;;;;;;;17.69;100.00;101467.44;4971694;28;20081;-62
2021/09/27 01:17:41;;;;;;;34.45;20.05;;;;;;;17.42;100.00;101468.78;4976550;28;20113;-62
2021/09/27 01:20:11;;;;;;;33.28;18.25;;;;;;;17.52;100.00;101466.72;4926516;28;21020;-61
2021/09/27 01:23:06;;;;;;;41.72;20.73;;;;;;;17.50;100.00;101456.28;4931970;28;20134;-62
2021/09/27 01:26:10;;;;;;;37.67;20.85;;;;;;;17.37;100.00;101456.88;4953965;28;20094;-62
2021/09/27 01:28:57;;;;;;;39.97;20.20;;;;;;;17.48;100.00;101453.00;4974957;28;20117;-62
2021/09/27 01:31:36;;;;;;;41.80;21.23;;;;;;;17.26;100.00;101459.94;4970448;28;20116;-62
2021/09/27 01:34:12;;;;;;;39.92;21.13;;;;;;;17.62;100.00;101454.06;4979235;28;20069;-62
2021/09/27 01:36:58;;;;;;;39.03;20.15;;;;;;;17.56;100.00;101442.34;4974557;28;20073;-61
2021/09/27 01:39:42;;;;;;;40.60;19.63;;;;;;;17.66;100.00;101446.56;4978768;28;20058;-62
2021/09/27 01:42:17;;;;;;;39.78;20.65;;;;;;;17.46;100.00;101446.22;4969080;28;20057;-62
2021/09/27 01:45:05;;;;;;;42.65;19.45;;;;;;;17.29;100.00;101449.00;4976676;28;20639;-61
2021/09/27 01:47:44;;;;;;;45.58;20.95;;;;;;;17.28;100.00;101454.47;4976102;28;20105;-62
2021/09/27 01:50:20;;;;;;;29.00;16.95;;;;;;;17.12;100.00;101452.75;4980938;28;20288;-62
2021/09/27 01:52:56;;;;;;;34.92;19.83;;;;;;;17.33;100.00;101445.00;4978031;28;20146;-62
2021/09/27 01:55:39;;;;;;;35.25;21.05;;;;;;;17.21;100.00;101449.03;4970457;28;20133;-62
2021/09/27 01:58:12;;;;;;;40.45;19.27;;;;;;;17.50;100.00;101442.22;4971008;28;20081;-62
2021/09/27 02:00:53;;;;;;;39.75;20.75;;;;;;;17.19;100.00;101435.97;4970448;28;20081;-62
2021/09/27 02:03:43;;;;;;;39.10;20.08;;;;;;;17.14;100.00;101448.09;4977840;28;20056;-62
2021/09/27 02:06:39;;;;;;;41.85;20.38;;;;;;;17.55;100.00;101448.63;4972943;28;20062;-63
2021/09/27 02:09:12;;;;;;;40.47;20.92;;;;;;;17.61;100.00;101454.25;4979383;28;20158;-63
2021/09/27 02:11:43;;;;;;;39.45;21.10;;;;;;;17.72;100.00;101445.84;4969599;28;20178;-63
2021/09/27 02:14:34;;;;;;;45.25;19.45;;;;;;;17.79;100.00;101450.25;4981970;28;20164;-63
2021/09/27 02:17:04;;;;;;;41.67;19.38;;;;;;;17.31;100.00;101452.28;4979656;28;20081;-63
2021/09/27 02:19:33;;;;;;;39.33;20.38;;;;;;;17.09;100.00;101461.03;4986365;28;20114;-63
2021/09/27 02:22:20;;;;;;;37.38;21.10;;;;;;;16.87;100.00;101446.72;4979316;28;20172;-63
2021/09/27 02:24:56;;;;;;;37.75;19.58;;;;;;;16.85;100.00;101440.78;4980868;28;20141;-62
2021/09/27 02:27:23;;;;;;;37.00;18.50;;;;;;;16.81;100.00;101429.66;4977273;28;20594;-62
2021/09/27 02:29:49;;;;;;;39.30;21.10;;;;;;;16.84;100.00;101428.50;4987094;28;20058;-63
2021/09/27 02:32:31;;;;;;;36.90;19.98;;;;;;;16.77;100.00;101431.00;4982653;28;20085;-63
2021/09/27 02:35:33;;;;;;;48.17;21.02;;;;;;;16.76;100.00;101419.59;4981183;28;20144;-63
2021/09/27 02:38:10;;;;;;;40.35;21.55;;;;;;;16.63;100.00;101427.25;4960108;28;20050;-63
2021/09/27 02:40:45;;;;;;;37.03;19.75;;;;;;;16.93;100.00;101430.13;4974495;28;20118;-63
2021/09/27 02:43:13;;;;;;;34.75;20.02;;;;;;;17.16;100.00;101423.03;4983990;28;20133;-63
2021/09/27 02:45:44;;;;;;;37.88;20.27;;;;;;;16.94;100.00;101422.00;4982353;28;20054;-62
2021/09/27 02:48:21;;;;;;;40.20;21.00;;;;;;;16.84;100.00;101425.88;4983857;28;20054;-63
2021/09/27 02:50:52;;;;;;;40.92;20.48;;;;;;;17.07;100.00;101423.25;4976555;28;20050;-63
2021/09/27 02:53:20;;;;;;;35.92;19.30;;;;;;;17.22;100.00;101424.16;4980164;28;20074;-63
2021/09/27 02:56:08;;;;;;;44.95;19.65;;;;;;;17.33;100.00;101422.97;4986060;28;20050;-63
2021/09/27 02:59:04;;;;;;;37.22;19.20;;;;;;;17.41;100.00;101414.94;4982548;28;20133;-62
2021/09/27 03:01:43;;;;;;;43.80;20.20;;;;;;;17.47;100.00;101416.88;4968312;28;20085;-63
2021/09/27 03:04:15;;;;;;;41.55;20.20;;;;;;;17.25;100.00;101421.19;4985580;28;20459;-63
2021/09/27 03:06:47;;;;;;;41.25;20.00;;;;;;;17.61;100.00;101412.63;4977497;28;20104;-62
2021/09/27 03:09:34;;;;;;;42.75;20.95;;;;;;;17.51;100.00;101412.88;4978641;28;20230;-62
2021/09/27 03:12:17;;;;;;;41.78;20.35;;;;;;;17.61;100.00;101407.31;4981631;28;20452;-62
2021/09/27 03:15:07;;;;;;;43.58;21.63;;;;;;;17.44;100.00;101405.78;4981353;28;20134;-62
2021/09/27 03:18:09;;;;;;;35.80;19.90;;;;;;;17.42;100.00;101410.44;4983637;28;20085;-62
2021/09/27 03:20:50;;;;;;;44.33;20.73;;;;;;;17.06;100.00;101400.44;4933759;28;20153;-62
2021/09/27 03:23:32;;;;;;;37.83;20.40;;;;;;;17.25;100.00;101404.44;4983664;28;20042;-63
2021/09/27 03:26:45;;;;;;;40.40;20.40;;;;;;;17.42;100.00;101399.84;4975532;28;20053;-63
2021/09/27 03:29:49;;;;;;;38.20;20.00;;;;;;;17.42;100.00;101400.66;4970483;28;20145;-62
2021/09/27 03:32:55;;;;;;;41.60;21.38;;;;;;;17.00;100.00;101396.66;4950566;28;20516;-63
2021/09/27 03:36:03;;;;;;;39.95;20.42;;;;;;;17.23;100.00;101395.81;4939784;28;20052;-62
2021/09/27 03:38:40;;;;;;;;;;;;;;;17.30;100.00;101391.47;4982611;28;20134;-62
2021/09/27 03:41:06;;;;;;;32.53;18.67;;;;;;;17.26;100.00;101385.69;4977680;28;20009;-62
2021/09/27 03:43:40;;;;;;;38.45;20.77;;;;;;;17.08;100.00;101380.69;4977501;28;20166;-62
2021/09/27 03:46:57;;;;;;;42.00;20.92;;;;;;;16.79;100.00;101381.31;4991138;28;20133;-62
2021/09/27 03:49:45;;;;;;;42.65;21.23;;;;;;;16.68;100.00;101387.00;4955420;28;20134;-62
2021/09/27 03:52:41;;;;;;;44.23;20.03;;;;;;;16.90;100.00;101391.56;4978420;28;20101;-62
2021/09/27 03:55:12;;;;;;;46.00;21.75;;;;;;;16.67;100.00;101394.13;4974662;28;20432;-62
2021/09/27 03:57:46;;;;;;;44.72;21.63;;;;;;;16.82;100.00;101396.06;4978746;28;20497;-62
2021/09/27 04:00:39;;;;;;;39.70;21.55;;;;;;;17.15;100.00;101399.34;4970697;28;20176;-62
2021/09/27 04:03:06;;;;;;;43.63;20.67;;;;;;;17.24;100.00;101395.66;4977427;28;20049;-63
2021/09/27 04:06:06;;;;;;;43.60;22.33;;;;;;;17.06;100.00;101400.44;4973791;28;20133;-62
2021/09/27 04:08:46;;;;;;;41.38;21.30;;;;;;;17.23;100.00;101391.38;4984328;28;20050;-62
2021/09/27 04:11:23;;;;;;;36.63;20.95;;;;;;;17.23;100.00;101394.03;4971106;28;20105;-62
2021/09/27 04:14:08;;;;;;;44.38;21.42;;;;;;;17.17;100.00;101408.81;4980094;28;21007;-62
2021/09/27 04:17:00;;;;;;;44.13;22.35;;;;;;;17.27;100.00;101405.06;4970057;28;20046;-61
2021/09/27 04:19:45;;;;;;;45.88;22.08;;;;;;;16.88;100.00;101409.47;4982515;28;20564;-62
2021/09/27 04:22:21;;;;;;;57.97;23.80;;;;;;;17.20;100.00;101403.13;4973476;28;20112;-63
2021/09/27 04:25:09;;;;;;;47.25;23.70;;;;;;;17.35;100.00;101402.38;4981072;28;20089;-63
2021/09/27 04:27:48;;;;;;;42.00;21.80;;;;;;;17.41;100.00;101391.06;4970949;28;20061;-63
2021/09/27 04:30:37;;;;;;;51.95;24.00;;;;;;;17.53;100.00;101399.44;4974955;28;20046;-63
2021/09/27 04:33:31;;;;;;;43.67;21.00;;;;;;;16.98;100.00;101396.00;4977310;28;20054;-63
2021/09/27 04:36:24;;;;;;;47.90;23.73;;;;;;;17.00;100.00;101394.81;4977580;28;20495;-63
2021/09/27 04:38:55;;;;;;;44.03;23.02;;;;;;;17.32;100.00;101395.59;4976942;28;20254;-62
2021/09/27 04:41:43;;;;;;;53.65;25.77;;;;;;;17.52;100.00;101403.91;4972692;28;20149;-63
2021/09/27 04:44:30;;;;;;;47.60;23.33;;;;;;;17.39;100.00;101401.03;4976493;28;20055;-63
2021/09/27 04:47:05;;;;;;;54.05;24.95;;;;;;;17.09;100.00;101400.06;4978765;28;20096;-63
2021/09/27 04:49:41;;;;;;;54.72;25.20;;;;;;;16.97;100.00;101396.97;4981134;28;20134;-63
2021/09/27 04:52:29;;;;;;;52.15;25.30;;;;;;;16.95;100.00;101397.16;4975062;28;20137;-63
2021/09/27 04:55:08;;;;;;;60.72;26.98;;;;;;;16.71;100.00;101395.44;4975055;28;20608;-63
2021/09/27 04:57:45;;;;;;;51.35;23.65;;;;;;;17.01;100.00;101390.34;4971039;28;20082;-62
2021/09/27 05:00:21;;;;;;;53.33;26.03;;;;;;;16.71;100.00;101391.97;4977110;28;20086;-63
2021/09/27 05:03:15;;;;;;;53.63;23.98;;;;;;;16.62;100.00;101388.50;4972542;28;20058;-63
2021/09/27 05:05:44;;;;;;;51.35;24.85;;;;;;;16.60;100.00;101396.66;4978293;28;20158;-63
2021/09/27 05:08:26;;;;;;;46.15;23.73;;;;;;;17.14;100.00;101382.63;4974077;28;20161;-63
2021/09/27 05:11:12;;;;;;;54.85;25.33;;;;;;;17.67;100.00;101387.22;4971862;28;20136;-62
2021/09/27 05:13:50;;;;;;;46.70;23.95;;;;;;;17.77;100.00;101382.47;4976801;28;20472;-63
2021/09/27 05:16:45;;;;;;;49.67;24.10;;;;;;;17.36;100.00;101386.28;4979351;28;20050;-62
2021/09/27 05:19:30;;;;;;;49.55;24.52;;;;;;;17.51;100.00;101375.72;4967503;28;20076;-63
2021/09/27 05:22:12;;;;;;;45.17;23.98;;;;;;;17.73;100.00;101371.38;4979397;28;20157;-63
2021/09/27 05:25:21;;;;;;;43.17;21.60;;;;;;;17.78;100.00;101368.22;4968195;28;20038;-63
2021/09/27 05:28:12;;;;;;;48.38;24.35;;;;;;;17.34;100.00;101369.72;4978534;28;20650;-62
2021/09/27 05:31:05;;;;;;;50.35;25.33;;;;;;;17.19;100.00;101374.16;4968565;28;20378;-63
2021/09/27 05:33:50;;;;;;;47.40;23.98;;;;;;;17.20;100.00;101370.50;4982680;28;20051;-63
2021/09/27 05:36:47;;;;;;;56.65;26.73;;;;;;;17.44;100.00;101371.31;4970504;28;20050;-62
2021/09/27 05:39:23;;;;;;;49.17;25.23;;;;;;;17.59;100.00;101370.34;4975633;28;20121;-62
2021/09/27 05:42:06;;;;;;;51.30;25.70;;;;;;;17.71;100.00;101369.94;4972338;28;20141;-62
2021/09/27 05:44:47;;;;;;;56.70;26.92;;;;;;;17.37;100.00;101366.72;4977774;28;20092;-63
2021/09/27 05:47:31;;;;;;;54.20;26.42;;;;;;;17.33;100.00;101372.56;4976445;28;20081;-63
2021/09/27 05:50:20;;;;;;;60.55;27.98;;;;;;;17.19;100.00;101363.56;4976464;28;20173;-63
2021/09/27 05:53:00;;;;;;;51.05;25.38;;;;;;;17.30;100.00;101359.66;4975175;28;20050;-63
2021/09/27 05:55:40;;;;;;;60.03;26.27;;;;;;;17.23;100.00;101364.00;4970927;28;20592;-63
2021/09/27 05:58:28;;;;;;;58.05;25.92;;;;;;;17.38;100.00;101363.06;4982221;28;20074;-63
2021/09/27 06:01:23;;;;;;;56.05;27.23;;;;;;;17.53;100.00;101364.94;4970517;28;20140;-63
2021/09/27 06:04:36;;;;;;;52.95;25.63;;;;;;;17.47;100.00;101365.66;4981408;28;20050;-63
2021/09/27 06:07:15;;;;;;;58.85;26.92;;;;;;;17.59;100.00;101361.59;4975541;28;20351;-62
2021/09/27 06:10:09;;;;;;;66.35;27.88;;;;;;;17.35;100.00;101363.44;4978890;28;20056;-63
2021/09/27 06:13:04;;;;;;;58.65;27.25;;;;;;;17.21;100.00;101366.88;4981014;28;20597;-63
2021/09/27 06:15:44;;;;;;;50.05;25.55;;;;;;;17.37;100.00;101371.22;4977520;28;20137;-62
2021/09/27 06:18:19;;;;;;;58.10;27.50;;;;;;;17.14;100.00;101368.56;4974638;28;20082;-63
2021/09/27 06:20:52;;;;;;;69.18;28.33;;;;;;;17.37;100.00;101369.38;4971026;28;20444;-63
2021/09/27 06:23:36;;;;;;;55.35;26.13;;;;;;;17.58;100.00;101362.56;4973395;28;20145;-63
2021/09/27 06:26:12;;;;;;;64.30;27.02;;;;;;;17.67;100.00;101356.19;4977176;28;20747;-63
2021/09/27 06:29:13;;;;;;;56.90;24.77;;;;;;;17.99;100.00;101354.25;4974382;28;20058;-63
2021/09/27 06:32:03;;;;;;;62.30;27.52;;;;;;;17.68;100.00;101349.91;4978167;28;20054;-63
2021/09/27 06:34:51;;;;;;;56.70;26.45;;;;;;;17.76;100.00;101349.00;4969013;28;20078;-63
2021/09/27 06:37:20;;;;;;;61.85;25.77;;;;;;;17.85;100.00;101347.91;4980408;28;21339;-63
2021/09/27 06:39:48;;;;;;;61.25;24.90;;;;;;;17.97;100.00;101354.44;4969077;28;20245;-63
2021/09/27 06:42:14;;;;;;;58.30;26.98;;;;;;;18.29;100.00;101364.88;4979692;28;20050;-63
2021/09/27 06:44:44;;;;;;;53.90;25.05;;;;;;;18.27;100.00;101353.59;4971008;28;20129;-63
2021/09/27 06:47:15;;;;;;;58.28;27.90;;;;;;;18.23;100.00;101361.13;4974934;28;20077;-63
2021/09/27 06:49:42;;;;;;;79.60;27.08;;;;;;;18.22;100.00;101348.03;4974405;28;20050;-63
2021/09/27 06:52:08;;;;;;;61.22;24.45;;;;;;;18.70;100.00;101340.44;4972274;28;20080;-63
2021/09/27 06:54:35;;;;;;;55.65;24.67;;;;;;;18.63;100.00;101356.31;4976542;28;20086;-63
2021/09/27 06:57:02;;;;;;;55.25;26.00;;;;;;;18.54;100.00;101352.09;4973040;28;20482;-63
2021/09/27 06:59:28;;;;;;;63.30;30.10;;;;;;;18.35;100.00;101342.91;4972882;28;20094;-63
2021/09/27 07:02:16;;;;;;;67.50;30.50;;;;;;;18.14;100.00;101344.47;4973874;28;20061;-63
2021/09/27 07:04:43;;;;;;;57.15;25.77;;;;;;;17.90;100.00;101342.91;4978462;28;20059;-63
2021/09/27 07:07:10;;;;;;;54.15;24.20;;;;;;;17.40;100.00;101341.69;4983437;28;20423;-63
2021/09/27 07:09:38;;;;;;;63.33;26.08;;;;;;;17.90;100.00;101336.78;4974301;28;20085;-63
2021/09/27 07:12:05;;;;;;;50.42;24.13;;;;;;;18.06;100.00;101333.94;4983408;28;20137;-63
2021/09/27 07:14:32;;;;;;;64.53;26.77;;;;;;;17.76;100.00;101335.72;4970239;28;20146;-63
2021/09/27 07:16:58;;;;;;;60.35;25.88;;;;;;;18.09;100.00;101330.94;4979602;28;20054;-63
2021/09/27 07:19:25;;;;;;;54.67;25.13;;;;;;;18.21;100.00;101331.28;4973602;28;20137;-63
2021/09/27 07:21:51;;;;;;;55.08;25.48;;;;;;;17.96;100.00;101328.09;4982348;28;20157;-63
2021/09/27 07:24:18;;;;;;;59.10;28.08;;;;;;;18.14;100.00;101328.53;4981190;28;21064;-64
2021/09/27 07:26:44;;;;;;;56.35;25.27;;;;;;;18.71;100.00;101321.66;4975999;28;20148;-63
2021/09/27 07:29:11;;;;;;;51.47;26.38;;;;;;;19.02;100.00;101323.22;4973353;28;20137;-63
2021/09/27 07:31:37;;;;;;;64.00;27.48;;;;;;;19.10;100.00;101323.09;4976916;28;20066;-63
2021/09/27 07:34:06;;;;;;;55.35;26.67;;;;;;;19.36;100.00;101329.66;4980241;28;20046;-63
2021/09/27 07:36:33;;;;;;;62.90;26.50;;;;;;;19.47;100.00;101326.47;4978727;28;20141;-63
2021/09/27 07:39:00;;;;;;;68.85;28.95;;;;;;;18.95;100.00;101314.34;4981759;28;20046;-63
2021/09/27 07:41:29;;;;;;;63.50;27.85;;;;;;;18.99;100.00;101314.81;4978372;28;20149;-63
2021/09/27 07:43:55;;;;;;;62.78;27.20;;;;;;;19.25;100.00;101315.06;4972530;28;20540;-63
2021/09/27 07:46:23;;;;;;;57.83;26.88;;;;;;;18.95;100.00;101311.69;4983226;28;20121;-64
2021/09/27 07:48:50;;;;;;;65.95;29.85;;;;;;;19.28;100.00;101312.00;4974963;28;20054;-63
2021/09/27 07:51:19;;;;;;;60.10;27.10;;;;;;;19.36;100.00;101321.69;4981752;28;20129;-63
2021/09/27 07:53:45;;;;;;;57.25;25.70;;;;;;;19.34;100.00;101315.72;4970407;28;20078;-63
2021/09/27 07:56:12;;;;;;;60.45;27.10;;;;;;;19.25;100.00;101314.22;4977679;28;20161;-63
2021/09/27 07:58:38;;;;;;;63.88;27.75;;;;;;;18.86;100.00;101310.19;4980198;28;20133;-63
2021/09/27 08:01:05;;;;;;;65.10;28.08;;;;;;;19.03;100.00;101308.09;4975961;28;20141;-63
2021/09/27 08:03:31;;;;;;;70.32;28.52;;;;;;;19.12;100.00;101309.63;4981510;28;20054;-63
2021/09/27 08:05:58;;;;;;;78.03;29.08;;;;;;;19.21;100.00;101312.97;4977606;28;20086;-63
2021/09/27 08:08:24;;;;;;;58.75;25.27;;;;;;;19.46;100.00;101316.84;4978267;28;20050;-63
2021/09/27 08:10:51;;;;;;;64.68;26.83;;;;;;;19.51;100.00;101306.47;4971792;28;20093;-62
2021/09/27 08:13:18;;;;;;;70.05;29.80;;;;;;;19.48;100.00;101300.69;4981311;28;20046;-63
2021/09/27 08:15:47;;;;;;;61.88;26.35;;;;;;;19.78;100.00;101297.84;4980556;28;20748;-63
2021/09/27 08:18:15;;;;;;;56.83;25.77;;;;;;;19.85;100.00;101304.84;4975619;28;20688;-63
2021/09/27 08:20:52;;;;;;;56.25;25.27;;;;;;;19.73;100.00;101304.59;4982093;28;20050;-63
2021/09/27 08:23:19;;;;;;;69.35;27.83;;;;;;;20.01;100.00;101306.38;4965276;28;20488;-63
2021/09/27 08:25:46;;;;;;;74.47;29.37;;;;;;;20.50;100.00;101293.88;4981259;28;20085;-64
2021/09/27 08:28:15;;;;;;;61.15;26.77;;;;;;;19.94;100.00;101300.22;4973388;28;20089;-63
2021/09/27 08:30:48;;;;;;;68.30;28.27;;;;;;;19.89;100.00;101289.31;4982642;28;20396;-63
2021/09/27 08:33:15;;;;;;;53.08;25.55;;;;;;;20.35;100.00;101288.72;4978196;28;20067;-63
2021/09/27 08:35:41;;;;;;;60.38;27.35;;;;;;;19.79;100.00;101281.69;4973437;28;20834;-63
2021/09/27 08:38:09;;;;;;;62.05;27.23;;;;;;;20.22;100.00;101281.50;4974130;28;20137;-63
2021/09/27 08:40:51;;;;;;;60.53;26.63;;;;;;;20.39;100.00;101286.47;4973997;28;20093;-63
2021/09/27 08:43:20;;;;;;;57.00;26.30;;;;;;;20.00;100.00;101287.97;4978049;28;20475;-63
2021/09/27 08:45:48;;;;;;;70.28;27.58;;;;;;;20.33;100.00;101280.91;4975300;28;20137;-63
2021/09/27 08:48:29;;;;;;;60.35;27.38;;;;;;;20.63;97.91;101285.94;4979897;28;20054;-63
2021/09/27 08:50:56;;;;;;;63.33;25.45;;;;;;;21.04;94.93;101276.97;4972074;28;20085;-63
2021/09/27 08:53:32;;;;;;;59.90;26.35;;;;;;;20.27;98.83;101283.56;4973886;28;20074;-63
2021/09/27 08:56:24;;;;;;;54.42;24.40;;;;;;;20.27;100.00;101283.56;4981584;28;20046;-63
2021/09/27 08:58:54;;;;;;;58.10;26.23;;;;;;;20.00;100.00;101270.13;4979013;28;20058;-63
2021/09/27 09:01:43;;;;;;;60.97;25.85;;;;;;;19.82;100.00;101273.31;4978920;28;20141;-63
2021/09/27 09:04:20;;;;;;;62.42;25.63;;;;;;;20.36;100.00;101277.03;4967387;28;20065;-62
2021/09/27 09:06:52;;;;;;;120.97;28.52;;;;;;;19.91;100.00;101280.09;4977039;28;20109;-62
2021/09/27 09:09:26;;;;;;;85.28;26.30;;;;;;;19.77;100.00;101272.25;4973535;28;20448;-61
2021/09/27 09:11:58;;;;;;;55.83;23.67;;;;;;;19.73;100.00;101269.16;4980981;28;20082;-61
2021/09/27 09:14:36;;;;;;;390.02;44.53;;;;;;;19.71;100.00;101274.69;4972560;28;20548;-61
2021/09/27 09:17:14;;;;;;;64.20;25.00;;;;;;;19.63;100.00;101274.81;4978443;28;20050;-61
2021/09/27 09:19:41;;;;;;;58.70;25.52;;;;;;;19.67;100.00;101273.41;4966353;28;20077;-62
2021/09/27 09:22:18;;;;;;;58.85;22.95;;;;;;;21.17;94.17;101264.66;4977576;28;20081;-62
2021/09/27 09:24:46;;;;;;;70.20;24.17;;;;;;;20.54;99.07;101263.13;4971314;28;20138;-62
2021/09/27 09:27:13;;;;;;;89.00;25.63;;;;;;;20.20;100.00;101270.22;4975818;28;20096;-62
2021/09/27 09:29:42;;;;;;;66.03;24.65;;;;;;;19.81;100.00;101263.69;4978436;28;20069;-62
2021/09/27 09:32:14;;;;;;;52.35;22.92;;;;;;;20.10;100.00;101261.78;4968243;28;20066;-62
2021/09/27 09:34:42;;;;;;;55.38;24.27;;;;;;;20.06;100.00;101279.16;4974263;28;20583;-64
2021/09/27 09:37:36;;;;;;;61.15;23.65;;;;;;;20.28;100.00;101269.22;4972655;28;20156;-62
2021/09/27 09:40:18;;;;;;;56.05;22.20;;;;;;;20.76;98.13;101265.66;4978882;28;20134;-62
2021/09/27 09:43:23;;;;;;;54.40;22.80;;;;;;;20.43;100.00;101263.75;4973048;28;20054;-62
2021/09/27 09:46:02;;;;;;;53.47;21.27;;;;;;;21.71;92.38;101267.06;4968335;28;20089;-62
2021/09/27 09:48:28;;;;;;;57.80;24.58;;;;;;;21.12;93.12;101267.97;4969138;28;20054;-62
2021/09/27 09:50:59;;;;;;;40.38;20.42;;;;;;;20.88;96.28;101264.88;4977316;28;20137;-62
2021/09/27 09:53:28;;;;;;;49.90;21.00;;;;;;;20.65;99.24;101257.25;4971814;28;20615;-61
2021/09/27 09:56:09;;;;;;;51.25;22.15;;;;;;;20.46;99.78;101255.34;4979224;28;20161;-62
2021/09/27 09:58:45;;;;;;;52.20;21.63;;;;;;;20.39;100.00;101265.16;4975176;28;20088;-61
2021/09/27 10:01:33;;;;;;;44.25;22.00;;;;;;;20.41;100.00;101271.13;4969495;28;20149;-62
2021/09/27 10:04:06;;;;;;;47.58;20.67;;;;;;;20.46;100.00;101271.31;4978178;28;20093;-62
2021/09/27 10:06:36;;;;;;;46.65;20.13;;;;;;;20.99;95.60;101255.44;4972550;28;20062;-61
2021/09/27 10:09:07;;;;;;;44.17;20.45;;;;;;;22.83;83.67;101264.09;4977107;28;20050;-61
2021/09/27 10:11:41;;;;;;;44.13;20.05;;;;;;;21.40;91.76;101261.56;4972626;28;20511;-61
2021/09/27 10:14:32;;;;;;;38.20;18.77;;;;;;;20.83;94.72;101259.31;4974260;28;20137;-61
2021/09/27 10:17:28;;;;;;;37.63;17.42;;;;;;;23.33;80.14;101257.16;4969698;28;20086;-61
2021/09/27 10:20:19;;;;;;;39.67;18.58;;;;;;;21.52;90.11;101257.25;4977151;28;20081;-62
2021/09/27 10:22:54;;;;;;;40.08;17.63;;;;;;;21.57;87.78;101262.81;4972843;28;20481;-62
2021/09/27 10:25:54;;;;;;;36.45;16.73;;;;;;;20.87;94.31;101262.41;4980787;28;20142;-62
2021/09/27 10:28:21;;;;;;;34.05;16.65;;;;;;;20.69;96.16;101250.47;4962500;28;20144;-61
2021/09/27 10:30:57;;;;;;;35.17;14.57;;;;;;;21.23;90.85;101254.00;4973427;28;20056;-62
2021/09/27 10:33:31;;;;;;;33.40;15.48;;;;;;;21.36;90.62;101250.50;4971743;28;20528;-62
2021/09/27 10:36:03;;;;;;;33.95;15.63;;;;;;;20.99;93.94;101260.75;4980339;28;20155;-62
2021/09/27 10:38:46;;;;;;;28.45;13.52;;;;;;;21.76;87.46;101239.78;4979412;28;20064;-61
2021/09/27 10:41:35;;;;;;;28.67;13.68;;;;;;;22.27;83.48;101246.97;4972238;28;20050;-62
2021/09/27 10:44:15;;;;;;;33.95;13.70;;;;;;;21.89;87.74;101231.72;4978738;28;20133;-61
2021/09/27 10:46:46;;;;;;;26.95;12.10;;;;;;;23.51;77.59;101245.63;4976725;28;20137;-62
2021/09/27 10:49:24;;;;;;;26.52;12.77;;;;;;;23.68;75.26;101236.78;4982202;28;20050;-62
2021/09/27 10:51:55;;;;;;;25.75;14.30;;;;;;;23.61;75.63;101228.00;4976520;28;20073;-62
2021/09/27 10:54:44;;;;;;;31.40;13.18;;;;;;;22.61;80.61;101239.56;4979756;28;20558;-62
2021/09/27 10:57:21;;;;;;;26.52;12.88;;;;;;;22.43;82.09;101221.59;4970492;28;20893;-62
2021/09/27 10:59:55;;;;;;;26.60;11.90;;;;;;;21.47;89.15;101231.22;4984553;28;20466;-63
2021/09/27 11:02:59;;;;;;;27.20;12.57;;;;;;;21.10;92.35;101230.00;4969837;28;20145;-62
2021/09/27 11:05:50;;;;;;;28.85;12.18;;;;;;;20.94;94.34;101233.91;4961550;28;20072;-62
2021/09/27 11:08:34;;;;;;;30.48;12.63;;;;;;;20.87;95.42;101225.06;4972477;28;20207;-63
2021/09/27 11:11:18;;;;;;;24.90;10.98;;;;;;;20.92;94.88;101215.44;4973899;28;20542;-62
2021/09/27 11:13:47;;;;;;;27.52;12.50;;;;;;;20.84;95.43;101207.66;4975024;28;20058;-62
2021/09/27 11:16:31;;;;;;;23.98;11.65;;;;;;;20.80;95.89;101202.94;4982179;28;20498;-63
2021/09/27 11:19:33;;;;;;;28.48;12.32;;;;;;;20.79;95.33;101207.44;4974141;28;20112;-62
2021/09/27 11:22:20;;;;;;;24.63;11.23;;;;;;;20.85;94.86;101213.78;4980853;28;20062;-63
2021/09/27 11:25:02;;;;;;;26.85;11.77;;;;;;;20.80;95.59;101206.44;4972293;28;20484;-63
2021/09/27 11:27:36;;;;;;;25.92;11.40;;;;;;;20.86;95.52;101210.94;4980111;28;20409;-62
2021/09/27 11:30:21;;;;;;;20.95;11.98;;;;;;;20.85;94.71;101200.47;4982066;28;20062;-63
2021/09/27 11:32:55;;;;;;;23.98;12.50;;;;;;;20.88;95.50;101203.53;4978584;28;20176;-63
2021/09/27 11:35:42;;;;;;;21.20;12.00;;;;;;;20.94;95.17;101193.91;4983057;28;20084;-63
2021/09/27 11:38:14;;;;;;;26.23;10.77;;;;;;;20.96;93.93;101199.84;4970066;28;20200;-62
2021/09/27 11:40:43;;;;;;;21.80;10.57;;;;;;;21.08;94.70;101197.38;4981925;28;20054;-63
2021/09/27 11:43:25;;;;;;;24.17;11.25;;;;;;;21.09;92.93;101201.69;4974246;28;20078;-63
2021/09/27 11:46:03;;;;;;;27.77;10.95;;;;;;;21.22;92.26;101192.84;4982937;28;20089;-63
2021/09/27 11:48:30;;;;;;;42.30;11.15;;;;;;;21.22;91.82;101201.66;4975966;28;20073;-63
2021/09/27 11:51:04;;;;;;;24.48;10.63;;;;;;;21.14;90.27;101189.38;4974449;28;20074;-61
2021/09/27 11:54:04;;;;;;;22.95;9.40;;;;;;;21.22;89.87;101199.00;4973890;28;20141;-64